Time;durP1;ratioP1;P1;durP2;ratioP2;P2;SDS_P1;SDS_P2;PMS_P1;PMS_P2;Temp;Humidity;BMP_temperature;BMP_pressure;BME280_temperature;BME280_humidity;BME280_pressure;Samples;Min_cycle;Max_cycle;Signal;HPM_P1;HPM_P2
2021/05/13 00:03:00;;;;;;;6.18;1.52;;;;;;;16.55;58.10;99695.97;5067896;28;20400;-79
2021/05/13 00:06:05;;;;;;;7.55;1.45;;;;;;;16.53;58.38;99697.19;5068474;28;20051;-75
2021/05/13 00:09:10;;;;;;;8.18;1.88;;;;;;;16.56;57.94;99694.97;5068852;28;20044;-78
2021/05/13 00:12:35;;;;;;;5.15;1.40;;;;;;;16.52;58.08;99693.63;5069658;28;20044;-75
2021/05/13 00:15:40;;;;;;;;;;;;;;;16.46;58.78;99685.41;5067940;28;20044;-80
2021/05/13 00:18:44;;;;;;;6.88;1.52;;;;;;;16.48;58.34;99688.75;5068179;28;19927;-77
2021/05/13 00:21:49;;;;;;;8.43;1.60;;;;;;;16.48;58.74;99680.63;5068725;28;20040;-79
2021/05/13 00:24:53;;;;;;;7.18;2.13;;;;;;;16.46;59.23;99674.56;5069171;28;20044;-79
2021/05/13 00:27:58;;;;;;;7.10;1.80;;;;;;;16.50;58.81;99673.16;5067310;28;20387;-77
2021/05/13 00:31:02;;;;;;;4.75;1.50;;;;;;;16.45;58.99;99665.59;5053744;28;20051;-77
2021/05/13 00:34:06;;;;;;;9.35;1.80;;;;;;;16.47;59.58;99676.22;5068117;28;20044;-79
2021/05/13 00:37:11;;;;;;;8.65;1.73;;;;;;;16.44;59.96;99674.75;5068719;28;20044;-80
2021/05/13 00:40:18;;;;;;;8.55;1.80;;;;;;;16.45;59.97;99670.16;5068329;28;20040;-78
2021/05/13 00:43:22;;;;;;;8.05;1.50;;;;;;;16.40;59.91;99672.59;5066175;28;20040;-76
2021/05/13 00:46:36;;;;;;;7.35;1.70;;;;;;;16.37;60.13;99670.28;5068853;28;20051;-75
2021/05/13 00:49:41;;;;;;;6.82;1.95;;;;;;;16.27;60.30;99670.53;5066356;28;20506;-73
2021/05/13 00:52:46;;;;;;;6.90;1.83;;;;;;;16.15;61.37;99672.91;5067385;28;20062;-78
2021/05/13 00:55:50;;;;;;;7.20;1.50;;;;;;;16.13;61.99;99665.97;5067736;28;20048;-73
2021/05/13 00:58:58;;;;;;;11.60;1.90;;;;;;;16.06;62.02;99662.34;5068451;28;20510;-73
2021/05/13 01:02:02;;;;;;;6.65;1.70;;;;;;;16.04;61.56;99670.66;5053700;28;20052;-76
2021/05/13 01:05:07;;;;;;;5.78;1.50;;;;;;;16.07;61.99;99656.72;5054090;28;20431;-73
2021/05/13 01:08:12;;;;;;;12.52;2.20;;;;;;;16.07;62.06;99666.75;5054812;28;20044;-76
2021/05/13 01:11:16;;;;;;;6.78;1.48;;;;;;;16.13;61.96;99660.56;5055279;28;20044;-76
2021/05/13 01:17:40;;;;;;;5.85;1.42;;;;;;;16.15;62.20;99667.47;5054019;28;20044;-76
2021/05/13 01:20:48;;;;;;;4.95;1.33;;;;;;;16.16;61.80;99654.78;5053697;28;20112;-75
2021/05/13 01:23:52;;;;;;;7.43;1.65;;;;;;;16.08;62.46;99650.31;5054696;28;20523;-73
2021/05/13 01:26:57;;;;;;;6.10;1.45;;;;;;;16.07;62.50;99651.31;5055187;28;20040;-74
2021/05/13 01:30:02;;;;;;;5.82;1.77;;;;;;;16.04;62.96;99650.88;5053038;28;20387;-74
2021/05/13 01:33:09;;;;;;;6.28;1.60;;;;;;;15.92;62.85;99646.94;5053775;28;20044;-74
2021/05/13 01:36:13;;;;;;;6.22;1.70;;;;;;;15.82;63.61;99646.38;5054749;28;20056;-73
2021/05/13 01:39:18;;;;;;;8.40;1.83;;;;;;;15.83;63.98;99640.78;5055070;28;20044;-74
2021/05/13 01:42:22;;;;;;;6.65;1.70;;;;;;;15.79;64.73;99635.91;5052957;28;20499;-75
2021/05/13 01:45:27;;;;;;;8.25;1.58;;;;;;;15.76;64.41;99637.13;5052778;28;20044;-73
2021/05/13 01:48:35;;;;;;;7.20;2.42;;;;;;;15.77;65.17;99633.41;5053936;28;20411;-76
2021/05/13 01:51:39;;;;;;;4.97;1.52;;;;;;;15.73;65.08;99632.06;5052437;28;20060;-74
2021/05/13 01:54:48;;;;;;;5.45;1.65;;;;;;;15.69;65.69;99628.06;5051403;28;20136;-73
2021/05/13 01:57:33;;;;;;;5.68;1.75;;;;;;;15.67;65.76;99622.00;5052320;28;20068;-73
2021/05/13 02:00:41;;;;;;;9.80;2.25;;;;;;;15.55;66.06;99621.59;5052465;28;20510;-74
2021/05/13 02:03:45;;;;;;;6.15;1.70;;;;;;;15.48;66.05;99622.56;5036646;28;20044;-74
2021/05/13 02:06:49;;;;;;;7.05;1.80;;;;;;;15.43;66.46;99611.41;5051266;28;20044;-75
2021/05/13 02:09:53;;;;;;;5.85;1.80;;;;;;;15.44;67.04;99611.22;5045847;28;20052;-73
2021/05/13 02:12:59;;;;;;;5.35;1.52;;;;;;;15.42;66.39;99607.00;5051387;28;20036;-73
2021/05/13 02:16:03;;;;;;;5.85;2.03;;;;;;;15.33;67.20;99614.34;5050385;28;20538;-73
2021/05/13 02:19:07;;;;;;;8.18;2.00;;;;;;;15.24;67.00;99615.44;5050873;28;20063;-74
2021/05/13 02:22:12;;;;;;;9.63;1.70;;;;;;;15.18;67.35;99604.53;5051405;28;20451;-74
2021/05/13 02:25:16;;;;;;;7.70;1.90;;;;;;;15.16;67.10;99595.78;5051827;28;20074;-75
2021/05/13 02:28:20;;;;;;;8.43;1.88;;;;;;;15.15;67.15;99592.22;5049819;28;20546;-73
2021/05/13 02:31:44;;;;;;;;;;;;;;;15.07;67.78;99589.59;5051778;28;20526;-73
2021/05/13 02:34:53;;;;;;;9.68;2.17;;;;;;;15.07;67.31;99596.84;5053713;28;19925;-73
2021/05/13 02:37:58;;;;;;;7.97;2.00;;;;;;;15.07;67.74;99586.88;5053975;28;20052;-75
2021/05/13 02:41:03;;;;;;;7.53;1.95;;;;;;;15.02;67.48;99596.56;5051826;28;20044;-74
2021/05/13 02:44:07;;;;;;;9.70;2.55;;;;;;;15.09;67.97;99594.78;5052626;28;20052;-75
2021/05/13 02:47:12;;;;;;;6.93;2.45;;;;;;;15.09;68.04;99592.94;5052890;28;20044;-74
2021/05/13 02:50:16;;;;;;;8.38;1.85;;;;;;;15.10;67.80;99580.28;5053043;28;20052;-76
2021/05/13 02:53:20;;;;;;;7.57;1.80;;;;;;;15.07;67.25;99588.72;5051182;28;20109;-74
2021/05/13 02:56:24;;;;;;;7.00;1.60;;;;;;;15.01;67.14;99575.97;5051789;28;20044;-76
2021/05/13 03:02:45;;;;;;;8.82;1.90;;;;;;;14.98;67.00;99582.56;5051822;28;20497;-74
2021/05/13 03:05:52;;;;;;;7.15;1.83;;;;;;;15.05;67.51;99574.56;5051451;28;20037;-73
2021/05/13 03:08:57;;;;;;;6.65;1.63;;;;;;;15.10;67.50;99578.41;5049460;28;20052;-73
2021/05/13 03:12:02;;;;;;;10.15;2.15;;;;;;;15.06;68.00;99570.84;5051119;28;20404;-74
2021/05/13 03:15:06;;;;;;;9.95;1.80;;;;;;;14.99;68.15;99570.72;5050824;28;20048;-73
2021/05/13 03:18:11;;;;;;;10.88;2.15;;;;;;;14.88;68.60;99555.81;5052263;28;20491;-74
2021/05/13 03:21:23;;;;;;;8.23;2.10;;;;;;;14.83;68.61;99557.38;5051895;28;20056;-74
2021/05/13 03:27:51;;;;;;;8.93;2.15;;;;;;;14.75;68.93;99558.25;5052571;28;20056;-74
2021/05/13 03:30:56;;;;;;;7.10;1.70;;;;;;;14.75;68.91;99555.56;5052402;28;20522;-73
2021/05/13 03:34:00;;;;;;;7.03;2.00;;;;;;;14.81;69.42;99559.41;5050787;28;20048;-74
2021/05/13 03:37:05;;;;;;;5.32;1.63;;;;;;;14.78;69.07;99549.81;5050061;28;20044;-73
2021/05/13 03:40:10;;;;;;;8.48;2.30;;;;;;;14.77;68.51;99552.66;5051014;28;20044;-73
2021/05/13 03:43:15;;;;;;;10.48;2.20;;;;;;;14.70;69.43;99552.56;5052051;28;20051;-74
2021/05/13 03:46:19;;;;;;;9.88;2.50;;;;;;;14.73;69.48;99551.34;5049834;28;20044;-73
2021/05/13 03:49:24;;;;;;;10.15;2.05;;;;;;;14.75;69.54;99555.56;5050141;28;20381;-75
2021/05/13 03:52:28;;;;;;;9.63;2.03;;;;;;;14.75;68.83;99554.72;5050933;28;20051;-73
2021/05/13 03:55:33;;;;;;;7.93;1.92;;;;;;;14.88;69.66;99550.41;5050800;28;20045;-74
2021/05/13 03:58:42;;;;;;;9.13;1.98;;;;;;;14.85;70.38;99542.66;5052078;28;20048;-74
2021/05/13 04:02:02;;;;;;;10.93;1.90;;;;;;;14.83;69.85;99542.00;5050537;28;20112;-74
2021/05/13 04:05:07;;;;;;;6.88;1.88;;;;;;;14.85;69.57;99539.09;5050703;28;20040;-76
2021/05/13 04:08:13;;;;;;;8.00;1.80;;;;;;;14.77;69.79;99545.41;5051302;28;20498;-73
2021/05/13 04:11:17;;;;;;;6.70;1.63;;;;;;;14.77;69.84;99542.72;5051198;28;20071;-74
2021/05/13 04:14:22;;;;;;;9.68;2.22;;;;;;;14.77;70.63;99539.16;5049980;28;20498;-74
2021/05/13 04:17:26;;;;;;;10.70;1.85;;;;;;;14.78;70.56;99540.84;5050527;28;20067;-74
2021/05/13 04:20:31;;;;;;;10.32;1.60;;;;;;;14.73;70.82;99546.81;5050270;28;20052;-73
2021/05/13 04:23:35;;;;;;;6.20;2.17;;;;;;;14.76;70.53;99537.50;5051598;28;20518;-75
2021/05/13 04:26:41;;;;;;;7.13;1.80;;;;;;;14.79;70.26;99546.06;5052107;28;20407;-74
2021/05/13 04:29:45;;;;;;;9.30;2.05;;;;;;;14.84;71.00;99538.25;5049367;28;20495;-74
2021/05/13 04:32:50;;;;;;;7.22;1.83;;;;;;;14.84;71.55;99543.66;5051272;28;20134;-73
2021/05/13 04:35:54;;;;;;;14.05;2.15;;;;;;;14.72;71.76;99549.66;5052447;28;20067;-73
2021/05/13 04:38:58;;;;;;;8.68;1.60;;;;;;;14.72;72.12;99552.38;5053190;28;20056;-73
2021/05/13 04:42:03;;;;;;;5.95;1.70;;;;;;;14.75;72.25;99547.47;5053423;28;20506;-72
2021/05/13 04:45:08;;;;;;;8.88;1.90;;;;;;;14.66;72.63;99551.25;5060676;28;20043;-73
2021/05/13 04:48:17;;;;;;;7.30;2.25;;;;;;;14.70;73.15;99551.72;5054254;28;20052;-73
2021/05/13 04:51:25;;;;;;;10.82;2.83;;;;;;;14.84;72.82;99549.06;5052557;28;20518;-75
2021/05/13 04:54:30;;;;;;;8.88;1.55;;;;;;;15.01;71.96;99546.25;5054365;28;20099;-75
2021/05/13 04:57:37;;;;;;;7.13;1.85;;;;;;;15.06;71.46;99543.81;5055047;28;20048;-75
2021/05/13 05:00:41;;;;;;;12.18;2.08;;;;;;;15.07;71.33;99543.63;5053225;28;20052;-72
2021/05/13 05:03:46;;;;;;;76.47;60.55;;;;;;;15.14;71.27;99546.44;5053383;28;20534;-73
2021/05/13 05:06:50;;;;;;;54.05;42.55;;;;;;;15.20;70.04;99543.84;5053993;28;20045;-74
2021/05/13 05:09:54;;;;;;;9.85;4.10;;;;;;;15.16;69.24;99541.72;5054767;28;21226;-73
2021/05/13 05:12:59;;;;;;;5.50;1.90;;;;;;;15.29;68.78;99544.59;5055095;28;20491;-75
2021/05/13 05:16:04;;;;;;;6.47;1.70;;;;;;;15.38;67.60;99546.22;5053050;28;20047;-72
2021/05/13 05:19:08;;;;;;;8.38;2.00;;;;;;;15.46;67.07;99543.44;5053511;28;20068;-72
2021/05/13 05:22:12;;;;;;;5.22;1.63;;;;;;;15.57;66.02;99534.88;5054275;28;20056;-77
2021/05/13 05:25:17;;;;;;;8.77;2.15;;;;;;;15.71;65.48;99544.00;5054507;28;20048;-73
2021/05/13 05:28:21;;;;;;;7.18;2.25;;;;;;;15.82;66.04;99536.28;5052390;28;20507;-72
2021/05/13 05:31:25;;;;;;;11.48;2.60;;;;;;;15.91;66.26;99534.28;5052908;28;20115;-74
2021/05/13 05:34:30;;;;;;;8.00;2.25;;;;;;;15.96;65.29;99529.16;5053346;28;20052;-73
2021/05/13 05:37:34;;;;;;;12.57;2.50;;;;;;;15.80;64.87;99535.59;5053591;28;20059;-77
2021/05/13 05:40:39;;;;;;;9.43;1.85;;;;;;;15.78;65.36;99537.66;5035762;28;20072;-76
2021/05/13 05:43:43;;;;;;;8.50;2.10;;;;;;;15.86;65.36;99531.31;5035723;28;20048;-76
2021/05/13 05:46:48;;;;;;;8.23;2.13;;;;;;;15.82;65.34;99535.44;5046787;28;20511;-73
2021/05/13 05:49:52;;;;;;;7.65;1.83;;;;;;;15.75;66.21;99532.59;5054870;28;20056;-72
2021/05/13 05:52:56;;;;;;;8.20;2.20;;;;;;;15.86;65.90;99534.84;5055404;28;20052;-73
2021/05/13 05:56:01;;;;;;;7.15;2.00;;;;;;;15.97;65.45;99531.66;5053990;28;20052;-75
2021/05/13 05:59:07;;;;;;;5.82;2.33;;;;;;;16.19;65.02;99533.41;5050251;28;20060;-77
2021/05/13 06:02:11;;;;;;;11.07;2.20;;;;;;;16.37;65.07;99532.16;5054451;28;20064;-74
2021/05/13 06:05:15;;;;;;;7.80;2.15;;;;;;;16.42;65.17;99532.41;5053799;28;20071;-72
2021/05/13 06:08:20;;;;;;;5.60;1.73;;;;;;;16.35;65.15;99536.88;5054133;28;20040;-77
2021/05/13 06:11:24;;;;;;;9.88;2.08;;;;;;;16.51;65.23;99536.66;5051493;28;20052;-72
2021/05/13 06:14:29;;;;;;;7.35;2.15;;;;;;;16.60;64.81;99530.97;5051492;28;20044;-83
2021/05/13 06:17:34;;;;;;;10.32;2.20;;;;;;;16.84;64.71;99535.13;5054950;28;20052;-78
2021/05/13 06:20:38;;;;;;;8.75;2.00;;;;;;;17.11;64.11;99530.81;5055086;28;20380;-78
2021/05/13 06:23:47;;;;;;;14.98;2.17;;;;;;;17.54;62.88;99527.81;5050071;28;20052;-71
2021/05/13 06:27:00;;;;;;;8.00;2.35;;;;;;;18.16;61.58;99521.44;5052028;28;20056;-86
2021/05/13 06:30:07;;;;;;;9.40;2.20;;;;;;;19.57;57.21;99516.56;5052535;28;20048;-80
2021/05/13 06:33:11;;;;;;;9.10;2.15;;;;;;;20.01;54.79;99508.47;5050156;28;20051;-82
2021/05/13 06:36:15;;;;;;;11.30;2.80;;;;;;;21.75;51.47;99518.53;5043421;28;20068;-85
2021/05/13 06:39:20;;;;;;;8.43;2.33;;;;;;;25.08;42.85;99502.78;5048126;28;20400;-81
2021/05/13 06:42:25;;;;;;;6.43;2.00;;;;;;;26.78;38.39;99504.63;5048007;28;20056;-76
2021/05/13 06:45:31;;;;;;;5.03;1.85;;;;;;;27.19;37.84;99509.38;5032357;28;20179;-75
2021/05/13 06:48:35;;;;;;;9.52;1.90;;;;;;;29.11;34.68;99505.63;5033655;28;20073;-83
2021/05/13 06:51:40;;;;;;;6.47;2.33;;;;;;;30.97;31.54;99509.81;5034471;28;20056;-77
2021/05/13 06:54:45;;;;;;;6.68;2.08;;;;;;;32.30;29.82;99500.75;5039839;28;20060;-76
2021/05/13 06:57:49;;;;;;;7.53;2.10;;;;;;;33.55;28.74;99508.38;5053815;28;20052;-72
2021/05/13 07:00:54;;;;;;;4.25;1.60;;;;;;;34.78;26.67;99511.19;5051447;28;20052;-73
2021/05/13 07:03:58;;;;;;;6.10;1.40;;;;;;;35.08;25.85;99500.19;5051338;28;20539;-75
2021/05/13 07:07:03;;;;;;;8.15;1.75;;;;;;;35.77;25.15;99503.44;5051605;28;20068;-73
2021/05/13 07:10:09;;;;;;;6.95;1.85;;;;;;;36.83;23.44;99500.34;5051433;28;20067;-73
2021/05/13 07:13:13;;;;;;;4.15;1.45;;;;;;;37.65;22.49;99497.34;5051527;28;20048;-73
2021/05/13 07:16:18;;;;;;;6.43;1.85;;;;;;;38.38;21.51;99501.69;5053457;28;20048;-73
2021/05/13 07:19:22;;;;;;;4.75;1.60;;;;;;;38.88;20.42;99499.75;5053810;28;20388;-74
2021/05/13 07:22:27;;;;;;;5.68;1.60;;;;;;;39.38;20.04;99496.03;5053654;28;20060;-73
2021/05/13 07:25:32;;;;;;;5.90;1.70;;;;;;;41.02;18.88;99492.72;5053751;28;20052;-78
2021/05/13 07:28:39;;;;;;;4.68;1.50;;;;;;;41.12;18.52;99490.22;5053650;28;20048;-74
2021/05/13 07:31:43;;;;;;;4.43;1.60;;;;;;;43.00;16.43;99490.31;5053605;28;20056;-79
2021/05/13 07:34:47;;;;;;;4.28;1.50;;;;;;;42.02;17.38;99486.72;5053478;28;20056;-75
2021/05/13 07:37:52;;;;;;;4.13;1.33;;;;;;;42.59;17.15;99488.97;5053646;28;20056;-78
2021/05/13 07:40:59;;;;;;;7.72;1.80;;;;;;;43.17;16.32;99485.03;5053511;28;20056;-73
2021/05/13 07:44:04;;;;;;;4.63;1.33;;;;;;;44.60;15.57;99481.59;5053497;28;20044;-73
2021/05/13 07:47:10;;;;;;;4.93;1.58;;;;;;;42.93;16.49;99491.00;5052556;28;20048;-73
2021/05/13 07:50:19;;;;;;;3.78;1.10;;;;;;;44.02;16.12;99483.06;5052762;28;20048;-79
2021/05/13 07:53:26;;;;;;;4.38;1.55;;;;;;;44.04;15.24;99475.81;5053460;28;20499;-73
2021/05/13 07:56:30;;;;;;;4.18;1.25;;;;;;;43.28;16.74;99480.41;5053241;28;20048;-79
2021/05/13 07:59:34;;;;;;;4.63;1.63;;;;;;;41.40;17.51;99485.44;5053145;28;20044;-76
2021/05/13 08:02:40;;;;;;;5.20;1.63;;;;;;;41.60;17.25;99477.13;5053319;28;20495;-73
2021/05/13 08:05:44;;;;;;;4.72;1.45;;;;;;;42.61;16.56;99475.31;5052390;28;20044;-73
2021/05/13 08:08:48;;;;;;;4.93;1.55;;;;;;;38.42;19.64;99479.41;5052955;28;20108;-78
2021/05/13 08:11:53;;;;;;;6.30;1.58;;;;;;;38.51;20.36;99477.38;5055216;28;20396;-73
2021/05/13 08:14:57;;;;;;;4.10;1.20;;;;;;;38.95;20.01;99476.72;5057202;28;20052;-77
2021/05/13 08:18:01;;;;;;;5.82;1.33;;;;;;;38.19;20.72;99478.84;5057004;28;20415;-73
2021/05/13 08:21:06;;;;;;;6.18;1.45;;;;;;;37.12;21.48;99483.75;5057126;28;20059;-74
2021/05/13 08:24:10;;;;;;;5.82;2.10;;;;;;;36.04;22.44;99469.72;5057224;28;20056;-74
2021/05/13 08:27:15;;;;;;;6.05;2.20;;;;;;;34.19;24.50;99474.00;5057035;28;20048;-78
2021/05/13 08:30:20;;;;;;;6.80;1.75;;;;;;;32.04;26.40;99474.44;5056706;28;20052;-74
2021/05/13 08:33:25;;;;;;;6.00;2.03;;;;;;;30.19;28.62;99481.97;5056906;28;20052;-73
2021/05/13 08:36:29;;;;;;;5.93;1.85;;;;;;;29.20;30.33;99472.78;5056868;28;20056;-73
2021/05/13 08:39:33;;;;;;;6.05;1.88;;;;;;;29.26;30.82;99475.25;5056938;28;20391;-76
2021/05/13 08:42:38;;;;;;;6.03;1.80;;;;;;;29.45;30.79;99473.59;5055873;28;20502;-74
2021/05/13 08:45:43;;;;;;;6.97;1.85;;;;;;;29.12;31.05;99462.22;5056528;28;20048;-74
2021/05/13 08:48:49;;;;;;;9.38;1.75;;;;;;;28.51;31.60;99459.41;5055151;28;20441;-73
2021/05/13 08:51:54;;;;;;;8.35;1.60;;;;;;;28.65;31.19;99468.00;5056414;28;20554;-75
2021/05/13 08:55:00;;;;;;;8.38;1.75;;;;;;;28.53;31.75;99457.19;5056397;28;20364;-73
2021/05/13 08:58:07;;;;;;;4.75;1.38;;;;;;;28.74;31.37;99464.41;5056367;28;20056;-78
2021/05/13 09:01:16;;;;;;;6.57;1.42;;;;;;;29.00;30.40;99463.34;5055430;28;20052;-77
2021/05/13 09:04:20;;;;;;;6.85;1.67;;;;;;;28.70;31.23;99452.28;5056121;28;20056;-77
2021/05/13 09:07:28;;;;;;;5.07;1.45;;;;;;;28.84;31.15;99445.09;5055349;28;20068;-73
2021/05/13 09:10:33;;;;;;;5.45;1.40;;;;;;;27.93;32.41;99443.16;5055244;28;20059;-73
2021/05/13 09:13:38;;;;;;;6.20;1.58;;;;;;;27.67;32.97;99443.06;5055983;28;20040;-73
2021/05/13 09:16:47;;;;;;;5.28;1.20;;;;;;;27.42;30.81;99442.91;5056113;28;20044;-73
2021/05/13 09:19:52;;;;;;;5.55;1.77;;;;;;;27.03;31.81;99441.50;5055996;28;20063;-73
2021/05/13 09:23:23;;;;;;;5.00;1.10;;;;;;;26.82;32.91;99446.00;5055778;28;20048;-73
2021/05/13 09:26:29;;;;;;;4.20;1.10;;;;;;;26.81;31.94;99441.56;5055984;28;20052;-73
2021/05/13 09:29:33;;;;;;;4.40;1.23;;;;;;;26.67;32.88;99448.56;5054929;28;20384;-72
2021/05/13 09:32:38;;;;;;;5.47;1.05;;;;;;;26.60;33.42;99436.94;5055726;28;20048;-72
2021/05/13 09:35:44;;;;;;;2.83;0.80;;;;;;;26.89;31.72;99434.75;5054894;28;20437;-73
2021/05/13 09:38:57;;;;;;;3.20;1.10;;;;;;;26.43;33.49;99434.31;5055588;28;20047;-77
2021/05/13 09:42:01;;;;;;;5.43;1.10;;;;;;;26.18;33.19;99431.28;5055569;28;20048;-73
2021/05/13 09:45:09;;;;;;;4.32;1.27;;;;;;;26.06;33.96;99430.56;5055382;28;20056;-73
2021/05/13 09:48:45;;;;;;;6.38;1.27;;;;;;;25.75;34.81;99423.03;5055420;28;20048;-72
2021/05/13 09:51:50;;;;;;;6.07;1.35;;;;;;;25.51;35.42;99427.94;5055205;28;20056;-74
2021/05/13 09:55:13;;;;;;;5.35;1.25;;;;;;;25.18;36.14;99417.78;5055501;28;20487;-73
2021/05/13 09:58:24;;;;;;;5.38;1.20;;;;;;;24.82;37.06;99420.22;5055130;28;20056;-73
2021/05/13 10:01:37;;;;;;;4.07;1.10;;;;;;;24.70;37.22;99420.28;5055075;28;20491;-73
2021/05/13 10:04:42;;;;;;;3.80;1.20;;;;;;;24.73;38.08;99414.31;5055031;28;20416;-73
2021/05/13 10:07:46;;;;;;;3.83;1.45;;;;;;;24.71;38.45;99402.75;5055021;28;20048;-72
2021/05/13 10:10:51;;;;;;;5.22;1.30;;;;;;;24.71;37.88;99408.25;5054909;28;20052;-75
2021/05/13 10:13:56;;;;;;;5.72;1.17;;;;;;;24.31;38.94;99404.78;5055015;28;20064;-77
2021/05/13 10:17:04;;;;;;;5.90;1.33;;;;;;;23.73;38.73;99394.84;5053999;28;20072;-72
2021/05/13 10:20:10;;;;;;;4.75;1.35;;;;;;;23.82;40.02;99398.88;5054881;28;20048;-76
2021/05/13 10:23:14;;;;;;;4.15;1.00;;;;;;;23.64;40.09;99393.56;5054706;28;20056;-73
2021/05/13 10:26:28;;;;;;;5.63;1.65;;;;;;;23.34;40.52;99395.63;5053895;28;20052;-73
2021/05/13 10:29:34;;;;;;;5.32;1.13;;;;;;;23.39;40.30;99390.28;5054610;28;20051;-73
2021/05/13 10:32:38;;;;;;;5.00;1.50;;;;;;;23.55;39.25;99391.44;5053442;28;20056;-76
2021/05/13 10:36:03;;;;;;;3.72;1.10;;;;;;;23.43;39.29;99385.16;5054448;28;20060;-73
2021/05/13 10:39:10;;;;;;;7.95;1.58;;;;;;;23.32;39.97;99378.59;5054342;28;20124;-74
2021/05/13 10:42:30;;;;;;;3.83;1.17;;;;;;;23.41;40.30;99379.91;5054318;28;20048;-74
2021/05/13 10:45:37;;;;;;;6.88;1.20;;;;;;;23.55;39.55;99364.88;5054236;28;20044;-74
2021/05/13 10:48:41;;;;;;;3.75;1.08;;;;;;;23.56;39.61;99362.97;5054181;28;20072;-73
2021/05/13 10:51:50;;;;;;;3.17;1.00;;;;;;;23.38;38.74;99363.94;5053131;28;20150;-76
2021/05/13 10:54:55;;;;;;;4.88;1.08;;;;;;;23.45;39.88;99353.72;5054143;28;20123;-74
2021/05/13 10:58:00;;;;;;;6.63;1.83;;;;;;;23.26;41.08;99361.22;5054001;28;20068;-73
2021/05/13 11:01:29;;;;;;;3.72;0.90;;;;;;;23.29;40.98;99348.94;5054007;28;20392;-73
2021/05/13 11:04:34;;;;;;;5.57;1.30;;;;;;;23.27;41.02;99348.34;5053729;28;20495;-73
2021/05/13 11:07:39;;;;;;;4.00;1.00;;;;;;;23.37;41.02;99345.88;5053805;28;20056;-74
2021/05/13 11:10:49;;;;;;;3.70;1.33;;;;;;;23.21;40.00;99341.94;5053627;28;20503;-73
2021/05/13 11:13:54;;;;;;;4.38;1.20;;;;;;;23.15;41.65;99347.53;5053700;28;20052;-73
2021/05/13 11:17:01;;;;;;;5.03;1.50;;;;;;;23.29;42.09;99335.25;5052796;28;20419;-74
2021/05/13 11:20:29;;;;;;;5.07;1.30;;;;;;;23.18;41.67;99347.88;5054033;28;20495;-73
2021/05/13 11:23:34;;;;;;;9.82;1.60;;;;;;;23.22;41.36;99331.81;5052830;28;20047;-73
2021/05/13 11:26:38;;;;;;;6.15;1.40;;;;;;;23.24;43.67;99337.88;5053556;28;20052;-74
2021/05/13 11:29:48;;;;;;;4.07;1.25;;;;;;;23.18;41.14;99325.16;5053620;28;20044;-73
2021/05/13 11:32:54;;;;;;;4.25;1.35;;;;;;;23.08;40.71;99323.03;5053539;28;20060;-74
2021/05/13 11:36:05;;;;;;;6.13;1.20;;;;;;;23.12;40.44;99324.22;5053526;28;20040;-73
2021/05/13 11:39:13;;;;;;;7.78;1.48;;;;;;;23.07;43.08;99328.75;5053510;28;20380;-74
2021/05/13 11:42:20;;;;;;;5.28;1.55;;;;;;;23.19;43.22;99316.69;5053521;28;20048;-74
2021/05/13 11:45:25;;;;;;;3.92;1.00;;;;;;;23.36;41.58;99308.59;5053144;28;20051;-73
2021/05/13 11:48:36;;;;;;;5.38;1.40;;;;;;;23.39;41.15;99319.06;5053270;28;20383;-73
2021/05/13 11:51:40;;;;;;;3.10;1.00;;;;;;;23.48;42.10;99312.13;5053089;28;20056;-73
2021/05/13 11:54:45;;;;;;;4.22;1.33;;;;;;;23.60;41.67;99310.16;5052268;28;20055;-73
2021/05/13 11:57:49;;;;;;;3.30;0.90;;;;;;;23.78;41.80;99306.41;5053154;28;20395;-74
2021/05/13 12:00:54;;;;;;;6.60;1.20;;;;;;;23.74;41.44;99305.25;5053057;28;20056;-73
2021/05/13 12:04:13;;;;;;;3.45;1.10;;;;;;;23.65;40.79;99303.97;5053333;28;20483;-73
2021/05/13 12:07:18;;;;;;;4.32;1.30;;;;;;;23.80;40.62;99298.78;5053582;28;20491;-73
2021/05/13 12:10:31;;;;;;;6.13;1.40;;;;;;;23.82;40.43;99299.38;5052314;28;20064;-74
2021/05/13 12:13:35;;;;;;;4.07;1.17;;;;;;;23.87;40.20;99300.28;5053267;28;20051;-77
2021/05/13 12:16:42;;;;;;;6.20;1.30;;;;;;;23.61;40.27;99305.53;5052283;28;20040;-73
2021/05/13 12:19:47;;;;;;;5.97;1.05;;;;;;;23.63;41.02;99292.41;5053087;28;20056;-73
2021/05/13 12:22:52;;;;;;;3.60;1.05;;;;;;;23.63;41.02;99298.72;5052262;28;20052;-75
2021/05/13 12:25:56;;;;;;;4.32;1.08;;;;;;;23.38;42.18;99292.72;5053527;28;20376;-78
2021/05/13 12:29:13;;;;;;;4.05;1.05;;;;;;;23.46;41.38;99297.84;5053607;28;20055;-74
2021/05/13 12:32:28;;;;;;;7.68;1.40;;;;;;;23.74;41.76;99295.13;5053416;28;20384;-75
2021/05/13 12:35:33;;;;;;;5.05;1.83;;;;;;;23.88;42.41;99290.97;5052637;28;20048;-78
2021/05/13 12:38:42;;;;;;;6.10;1.52;;;;;;;24.05;42.88;99301.16;5053426;28;20076;-75
2021/05/13 12:41:46;;;;;;;5.53;1.38;;;;;;;24.03;40.98;99293.16;5053289;28;20047;-73
2021/05/13 12:44:51;;;;;;;4.00;1.08;;;;;;;24.29;40.59;99294.47;5052363;28;20056;-75
2021/05/13 12:48:01;;;;;;;7.43;1.30;;;;;;;24.59;39.49;99284.81;5053169;28;20056;-77
2021/05/13 12:51:07;;;;;;;4.88;1.20;;;;;;;24.81;38.84;99284.91;5053311;28;20044;-74
2021/05/13 12:54:17;;;;;;;4.90;1.25;;;;;;;24.92;39.17;99272.13;5053290;28;20060;-78
2021/05/13 12:57:22;;;;;;;3.58;1.20;;;;;;;24.89;38.73;99270.72;5055075;28;20044;-74
2021/05/13 13:00:32;;;;;;;4.90;0.90;;;;;;;24.87;39.31;99264.66;5056761;28;20116;-79
2021/05/13 13:03:40;;;;;;;4.82;1.30;;;;;;;25.16;38.43;99263.41;5056758;28;20163;-78
2021/05/13 13:06:48;;;;;;;3.30;1.02;;;;;;;24.94;38.56;99273.53;5055756;28;20052;-78
2021/05/13 13:09:53;;;;;;;5.25;1.48;;;;;;;24.96;39.48;99279.59;5055836;28;20052;-77
2021/05/13 13:13:01;;;;;;;2.85;0.80;;;;;;;25.06;38.91;99277.00;5056537;28;20071;-73
2021/05/13 13:16:16;;;;;;;4.57;1.10;;;;;;;25.06;38.33;99279.75;5055831;28;20061;-73
2021/05/13 13:19:20;;;;;;;6.78;1.13;;;;;;;24.89;38.87;99280.88;5056510;28;20051;-73
2021/05/13 13:22:24;;;;;;;6.18;1.20;;;;;;;24.91;38.58;99274.03;5056372;28;20056;-74
2021/05/13 13:25:29;;;;;;;4.72;0.80;;;;;;;24.91;39.11;99279.53;5056654;28;20147;-73
2021/05/13 13:28:43;;;;;;;3.50;1.10;;;;;;;24.88;38.81;99274.56;5056393;28;20052;-79
2021/05/13 13:31:48;;;;;;;5.60;1.25;;;;;;;24.88;39.55;99282.81;5056180;28;20048;-73
2021/05/13 13:34:53;;;;;;;5.63;1.17;;;;;;;24.78;39.42;99299.13;5055941;28;20052;-75
2021/05/13 13:37:57;;;;;;;5.03;1.55;;;;;;;24.14;38.94;99306.03;5056097;28;20059;-74
2021/05/13 13:41:14;;;;;;;4.78;0.90;;;;;;;23.00;40.16;99297.94;5056106;28;20491;-76
2021/05/13 13:44:19;;;;;;;9.18;1.13;;;;;;;22.07;47.01;99297.88;5056006;28;20056;-72
2021/05/13 13:47:27;;;;;;;9.70;2.25;;;;;;;21.67;53.41;99307.69;5055970;28;20510;-74
2021/05/13 13:50:31;;;;;;;11.15;2.15;;;;;;;20.67;55.34;99328.13;5054517;28;20071;-73
2021/05/13 13:53:35;;;;;;;6.22;1.50;;;;;;;19.59;52.72;99306.72;5055148;28;20044;-77
2021/05/13 13:56:40;;;;;;;6.15;1.60;;;;;;;18.63;54.65;99309.34;5055880;28;20059;-74
2021/05/13 13:59:45;;;;;;;5.20;1.50;;;;;;;18.49;58.24;99315.81;5055857;28;20048;-73
2021/05/13 14:02:51;;;;;;;5.10;1.35;;;;;;;17.96;60.92;99319.56;5055719;28;20056;-78
2021/05/13 14:05:56;;;;;;;5.97;1.77;;;;;;;17.48;64.29;99316.91;5055559;28;20047;-74
2021/05/13 14:09:00;;;;;;;4.55;1.23;;;;;;;17.36;66.74;99304.97;5054698;28;20048;-76
2021/05/13 14:12:05;;;;;;;3.22;1.00;;;;;;;17.53;67.22;99309.03;5055556;28;20060;-74
2021/05/13 14:15:11;;;;;;;4.32;0.93;;;;;;;17.85;68.46;99312.84;5055379;28;20055;-73
2021/05/13 14:18:15;;;;;;;8.20;1.10;;;;;;;18.25;66.76;99321.03;5054748;28;20124;-78
2021/05/13 14:21:20;;;;;;;4.13;0.90;;;;;;;18.55;65.52;99331.31;5055490;28;20391;-78
2021/05/13 14:24:24;;;;;;;4.22;0.90;;;;;;;18.66;65.65;99319.81;5054721;28;20052;-73
2021/05/13 14:27:29;;;;;;;4.30;1.25;;;;;;;18.84;66.11;99324.56;5055423;28;20052;-73
2021/05/13 14:30:34;;;;;;;4.53;0.90;;;;;;;19.03;67.45;99315.53;5055437;28;20052;-73
2021/05/13 14:33:38;;;;;;;2.33;0.80;;;;;;;19.26;67.54;99323.16;5055157;28;20388;-73
2021/05/13 14:36:43;;;;;;;3.17;0.82;;;;;;;19.53;63.83;99324.75;5055118;28;20056;-74
2021/05/13 14:39:47;;;;;;;3.65;0.80;;;;;;;19.81;62.19;99322.50;5055117;28;20060;-73
2021/05/13 14:42:52;;;;;;;2.33;0.90;;;;;;;19.95;61.33;99332.25;5054949;28;20491;-77
2021/05/13 14:45:56;;;;;;;2.70;0.90;;;;;;;20.02;60.58;99335.75;5054894;28;20052;-73
2021/05/13 14:49:13;;;;;;;3.63;1.15;;;;;;;20.20;59.47;99337.75;5054539;28;20048;-73